Time;durP1;ratioP1;P1;durP2;ratioP2;P2;SDS_P1;SDS_P2;PMS_P1;PMS_P2;Temp;Humidity;BMP_temperature;BMP_pressure;BME280_temperature;BME280_humidity;BME280_pressure;Samples;Min_cycle;Max_cycle;Signal;HPM_P1;HPM_P2
2021/12/01 00:02:53;;;;;;;7.10;3.40;;;;;;;3.83;100.00;95169.31;20656879;28;20156;-75
2021/12/01 00:12:53;;;;;;;6.60;3.58;;;;;;;3.79;100.00;95149.16;20636896;28;20042;-74
2021/12/01 00:22:55;;;;;;;6.90;3.20;;;;;;;3.74;100.00;95128.22;20671953;28;20045;-76
2021/12/01 00:32:55;;;;;;;7.85;3.00;;;;;;;3.75;100.00;95121.94;20702983;28;20308;-75
2021/12/01 00:42:56;;;;;;;7.07;3.53;;;;;;;3.73;100.00;95090.00;20674900;28;20034;-76
2021/12/01 00:53:00;;;;;;;9.18;3.75;;;;;;;3.74;100.00;95068.78;20692803;28;20164;-76
2021/12/01 01:03:02;;;;;;;9.40;4.75;;;;;;;3.71;100.00;95073.78;20694258;28;20084;-75
2021/12/01 01:23:26;;;;;;;10.75;5.97;;;;;;;3.75;100.00;95038.91;20693253;28;20477;-75
2021/12/01 01:33:27;;;;;;;13.15;4.97;;;;;;;3.78;100.00;95022.66;20690607;28;20057;-75
2021/12/01 01:43:28;;;;;;;13.02;5.95;;;;;;;3.79;100.00;94990.16;20697139;28;20042;-76
2021/12/01 01:53:30;;;;;;;15.43;7.35;;;;;;;3.76;100.00;94976.84;20678028;28;20130;-75
2021/12/01 02:03:31;;;;;;;14.20;7.38;;;;;;;3.77;100.00;94955.63;20681496;28;20404;-74
2021/12/01 02:13:32;;;;;;;14.80;7.55;;;;;;;3.77;100.00;94944.38;20686055;28;20041;-74
2021/12/01 02:23:35;;;;;;;13.18;7.30;;;;;;;3.73;100.00;94910.09;20673044;28;20056;-75
2021/12/01 02:33:35;;;;;;;20.48;10.30;;;;;;;3.69;100.00;94908.28;20693702;28;20046;-75
2021/12/01 02:43:36;;;;;;;23.52;11.15;;;;;;;3.63;100.00;94869.06;20691605;28;20053;-74
2021/12/01 02:53:38;;;;;;;30.83;14.05;;;;;;;3.60;100.00;94822.50;20705575;28;20473;-74
2021/12/01 03:03:39;;;;;;;28.92;15.30;;;;;;;3.56;100.00;94811.00;20683114;28;20204;-74
2021/12/01 03:13:40;;;;;;;31.33;16.50;;;;;;;3.55;100.00;94759.69;20681569;28;20031;-76
2021/12/01 03:23:41;;;;;;;33.40;18.15;;;;;;;3.53;100.00;94753.19;20683581;28;20065;-76
2021/12/01 03:33:41;;;;;;;26.25;13.32;;;;;;;3.53;100.00;94755.78;20701107;28;20482;-76
2021/12/01 03:43:42;;;;;;;24.35;11.93;;;;;;;3.51;100.00;94744.81;20707892;28;20492;-76
2021/12/01 03:53:42;;;;;;;26.13;12.13;;;;;;;3.54;100.00;94731.97;20680890;28;20042;-76
2021/12/01 04:03:42;;;;;;;20.77;10.57;;;;;;;3.56;100.00;94724.63;20655320;28;20046;-76
2021/12/01 04:13:43;;;;;;;19.35;9.23;;;;;;;3.55;100.00;94690.84;20679250;28;20034;-75
2021/12/01 04:23:44;;;;;;;16.38;7.30;;;;;;;3.54;100.00;94689.31;20685628;28;20057;-75
2021/12/01 04:33:45;;;;;;;11.15;5.85;;;;;;;3.50;100.00;94662.91;20693402;28;20600;-74
2021/12/01 04:43:47;;;;;;;14.02;6.43;;;;;;;3.50;100.00;94628.09;20703895;28;20136;-75
2021/12/01 04:53:48;;;;;;;15.60;6.60;;;;;;;3.46;100.00;94603.56;20704703;28;20133;-74
2021/12/01 05:03:48;;;;;;;12.25;5.45;;;;;;;3.44;100.00;94597.81;20689395;28;20115;-75
2021/12/01 05:13:48;;;;;;;10.63;4.97;;;;;;;3.44;100.00;94563.78;20695372;28;20033;-74
2021/12/01 05:23:49;;;;;;;13.25;5.25;;;;;;;3.46;100.00;94535.50;20692496;28;20116;-75
2021/12/01 05:33:49;;;;;;;10.43;5.37;;;;;;;3.49;100.00;94511.34;20704794;28;20662;-74
2021/12/01 05:43:50;;;;;;;10.48;5.35;;;;;;;3.49;100.00;94485.94;20710587;28;20312;-74
2021/12/01 05:53:50;;;;;;;9.60;3.80;;;;;;;3.54;100.00;94474.66;20680629;28;20045;-74
2021/12/01 06:03:51;;;;;;;8.07;3.58;;;;;;;3.57;100.00;94450.50;20693979;28;20312;-74
2021/12/01 06:13:52;;;;;;;7.85;3.95;;;;;;;3.56;100.00;94441.09;20685013;28;20092;-74
2021/12/01 06:23:53;;;;;;;6.63;3.10;;;;;;;3.56;100.00;94420.94;20700239;28;20050;-73
2021/12/01 06:33:53;;;;;;;6.97;2.10;;;;;;;3.65;100.00;94397.47;20701306;28;20116;-74
2021/12/01 06:43:53;;;;;;;5.53;2.40;;;;;;;3.70;100.00;94392.19;20681401;28;20533;-73
2021/12/01 06:53:54;;;;;;;6.88;2.20;;;;;;;3.69;100.00;94343.47;20683619;28;20441;-75
2021/12/01 07:03:54;;;;;;;5.35;1.75;;;;;;;3.74;100.00;94350.47;20653106;28;20050;-74
2021/12/01 07:13:55;;;;;;;8.30;2.58;;;;;;;3.82;100.00;94324.41;20645695;28;20672;-77
2021/12/01 07:23:55;;;;;;;5.68;2.72;;;;;;;3.81;100.00;94308.97;20690933;28;20053;-79
2021/12/01 07:33:56;;;;;;;5.03;2.22;;;;;;;3.86;100.00;94293.13;20696799;28;20714;-79
2021/12/01 07:43:56;;;;;;;5.75;2.88;;;;;;;3.88;100.00;94279.75;20705266;28;20050;-80
2021/12/01 07:53:57;;;;;;;4.72;1.98;;;;;;;3.97;100.00;94259.69;20695954;28;20073;-80
2021/12/01 08:03:57;;;;;;;2.33;0.95;;;;;;;4.02;100.00;94228.94;20699682;28;20049;-80
2021/12/01 08:13:57;;;;;;;3.30;1.20;;;;;;;4.02;100.00;94218.44;20700140;28;20085;-80
2021/12/01 08:23:58;;;;;;;2.67;0.88;;;;;;;4.07;100.00;94191.34;20681010;28;20042;-80
2021/12/01 08:33:59;;;;;;;1.80;0.70;;;;;;;4.12;100.00;94177.38;20697777;28;20073;-81
2021/12/01 08:43:59;;;;;;;1.63;0.63;;;;;;;4.18;100.00;94176.94;20704811;28;20034;-80
2021/12/01 08:54:00;;;;;;;1.48;0.47;;;;;;;4.19;100.00;94172.50;20688140;28;20060;-78
2021/12/01 09:04:02;;;;;;;0.30;0.20;;;;;;;4.19;100.00;94149.69;20692336;28;20395;-80
2021/12/01 09:14:03;;;;;;;0.52;0.22;;;;;;;4.32;100.00;94142.84;20678737;28;20038;-80
2021/12/01 09:24:04;;;;;;;0.70;0.38;;;;;;;4.44;100.00;94118.72;20675801;28;20049;-79
2021/12/01 09:34:05;;;;;;;0.63;0.20;;;;;;;4.51;100.00;94108.56;20668318;28;20044;-81
2021/12/01 09:44:05;;;;;;;0.55;0.20;;;;;;;4.63;100.00;94098.28;20707915;28;20034;-81
2021/12/01 09:54:06;;;;;;;1.55;0.28;;;;;;;4.65;100.00;94090.13;20690696;28;20108;-80
2021/12/01 10:04:06;;;;;;;0.20;0.20;;;;;;;4.72;100.00;94073.94;20665734;28;20041;-79
2021/12/01 10:14:28;;;;;;;0.88;0.32;;;;;;;4.74;100.00;94050.81;20669462;28;20030;-78
2021/12/01 10:24:34;;;;;;;0.73;0.30;;;;;;;4.85;100.00;94033.75;20671361;28;20638;-79
2021/12/01 10:34:38;;;;;;;0.27;0.10;;;;;;;5.03;100.00;94019.59;20661613;28;20041;-80
2021/12/01 10:44:54;;;;;;;0.13;0.10;;;;;;;4.99;100.00;93986.41;20669937;28;21594;-81
2021/12/01 10:55:23;;;;;;;0.20;0.20;;;;;;;5.03;100.00;93959.22;20674983;28;20120;-81
2021/12/01 11:05:31;;;;;;;0.20;0.13;;;;;;;5.14;100.00;93953.69;20661512;28;20057;-81
2021/12/01 11:15:35;;;;;;;0.63;0.20;;;;;;;5.24;100.00;93940.25;20660042;28;20383;-80
2021/12/01 11:25:37;;;;;;;0.38;0.30;;;;;;;5.33;100.00;93925.28;20665026;28;20073;-82
2021/12/01 11:35:38;;;;;;;1.23;0.28;;;;;;;5.35;100.00;93932.81;20654108;28;20038;-81
2021/12/01 11:45:41;;;;;;;0.25;0.20;;;;;;;5.46;100.00;93917.56;20673373;28;20471;-80
2021/12/01 11:55:48;;;;;;;0.63;0.30;;;;;;;5.79;100.00;93894.91;20660730;28;20022;-78
2021/12/01 12:06:21;;;;;;;0.20;0.20;;;;;;;6.00;100.00;93865.34;20623639;28;20054;-79
2021/12/01 12:16:23;;;;;;;0.50;0.25;;;;;;;5.84;100.00;93849.31;20665214;28;20072;-80
2021/12/01 12:26:52;;;;;;;1.02;0.40;;;;;;;5.82;100.00;93854.09;20647149;28;20045;-79
2021/12/01 12:36:56;;;;;;;1.73;0.55;;;;;;;5.67;100.00;93873.78;20656826;28;20577;-80
2021/12/01 12:47:26;;;;;;;1.45;0.40;;;;;;;5.51;100.00;93864.88;20645548;28;20378;-80
2021/12/01 12:57:48;;;;;;;0.28;0.10;;;;;;;5.23;100.00;93862.59;20665655;28;20061;-81
2021/12/01 13:07:51;;;;;;;1.20;0.20;;;;;;;5.23;100.00;93846.84;20667070;28;20046;-82
2021/12/01 13:17:58;;;;;;;2.25;0.60;;;;;;;5.16;100.00;93857.06;20674941;28;20045;-81
2021/12/01 13:28:02;;;;;;;1.35;0.65;;;;;;;5.00;100.00;93886.38;20680931;28;20052;-80
2021/12/01 13:38:03;;;;;;;5.10;1.10;;;;;;;4.88;100.00;93880.22;20669023;28;20057;-81
2021/12/01 13:48:08;;;;;;;5.00;1.30;;;;;;;4.79;100.00;93888.06;20694761;28;20045;-80
2021/12/01 13:58:10;;;;;;;6.93;2.40;;;;;;;4.58;100.00;93909.66;20712000;28;20037;-80
2021/12/01 14:08:11;;;;;;;6.20;2.58;;;;;;;4.50;100.00;93936.63;20698332;28;20169;-80
2021/12/01 14:18:15;;;;;;;7.60;1.98;;;;;;;4.50;100.00;93941.84;20726888;28;20042;-80
2021/12/01 14:28:17;;;;;;;6.28;1.80;;;;;;;4.31;100.00;93965.72;20700313;28;20484;-80
2021/12/01 14:38:23;;;;;;;4.15;1.23;;;;;;;4.31;100.00;93970.16;20717705;28;20050;-80
2021/12/01 14:48:33;;;;;;;4.18;1.75;;;;;;;4.20;100.00;93959.19;20685187;28;20038;-81
2021/12/01 14:58:33;;;;;;;9.27;1.80;;;;;;;4.10;100.00;93975.94;20672706;28;20638;-78
2021/12/01 15:08:40;;;;;;;11.05;2.85;;;;;;;3.98;100.00;93978.31;20666057;28;20061;-81
2021/12/01 15:18:43;;;;;;;;;;;;;;;3.92;100.00;93990.00;20662692;28;20397;-80
2021/12/01 15:28:44;;;;;;;4.85;1.80;;;;;;;3.78;100.00;93990.88;20669745;28;19953;-79
2021/12/01 15:38:45;;;;;;;5.28;2.10;;;;;;;3.82;100.00;93991.81;20656482;28;20057;-78
2021/12/01 15:48:46;;;;;;;8.07;3.25;;;;;;;3.75;100.00;93994.06;20654195;28;20065;-78
2021/12/01 15:58:46;;;;;;;8.43;3.67;;;;;;;3.72;100.00;93996.50;20661032;28;20030;-82
2021/12/01 16:08:48;;;;;;;14.00;4.72;;;;;;;3.73;100.00;94009.31;20681468;28;20137;-81
2021/12/01 16:18:48;;;;;;;14.00;5.50;;;;;;;3.78;100.00;94016.25;20691151;28;20050;-79
2021/12/01 16:28:49;;;;;;;18.55;7.57;;;;;;;3.79;100.00;94029.06;20678257;28;20713;-80
2021/12/01 16:38:49;;;;;;;11.57;5.28;;;;;;;3.81;100.00;94044.47;20660328;28;20078;-80
2021/12/01 16:48:50;;;;;;;7.57;2.78;;;;;;;3.58;100.00;94062.03;20667167;28;20120;-78
2021/12/01 16:58:51;;;;;;;4.65;1.60;;;;;;;3.32;100.00;94093.19;20647682;28;20041;-76
2021/12/01 17:08:52;;;;;;;2.88;1.15;;;;;;;3.20;100.00;94089.22;20624284;28;20938;-74
2021/12/01 17:18:53;;;;;;;5.28;1.80;;;;;;;3.16;100.00;94106.56;20631394;28;20072;-74
2021/12/01 17:28:54;;;;;;;6.18;2.00;;;;;;;3.14;100.00;94116.56;20627879;28;20046;-75
2021/12/01 17:38:54;;;;;;;7.70;3.25;;;;;;;3.09;100.00;94113.28;20713204;22;20481;-73
2021/12/01 17:48:55;;;;;;;8.98;3.65;;;;;;;3.05;100.00;94120.16;20578070;28;20047;-74
2021/12/01 17:58:55;;;;;;;13.43;4.50;;;;;;;3.01;100.00;94135.66;20594778;28;20030;-75
2021/12/01 18:08:56;;;;;;;12.93;4.65;;;;;;;3.01;100.00;94141.66;20549260;28;20377;-73
2021/12/01 18:18:56;;;;;;;13.82;4.93;;;;;;;2.98;100.00;94151.91;20545508;28;20968;-73
2021/12/01 18:28:57;;;;;;;13.95;5.18;;;;;;;2.98;100.00;94152.72;20567613;28;20681;-73
2021/12/01 18:38:58;;;;;;;21.00;6.28;;;;;;;2.99;100.00;94169.94;20537963;28;20062;-73
2021/12/01 18:49:00;;;;;;;17.30;6.65;;;;;;;2.96;100.00;94183.59;20458131;28;20475;-74
2021/12/01 18:59:01;;;;;;;13.18;6.30;;;;;;;2.94;100.00;94190.97;20468524;28;20129;-73
2021/12/01 19:09:04;;;;;;;22.63;7.47;;;;;;;2.89;100.00;94213.78;20488360;28;20050;-73
2021/12/01 19:19:05;;;;;;;12.60;5.50;;;;;;;2.90;100.00;94207.50;20466426;28;20398;-73
2021/12/01 19:29:05;;;;;;;14.32;5.97;;;;;;;2.80;100.00;94230.16;20539688;28;20042;-73
2021/12/01 19:39:06;;;;;;;19.35;6.88;;;;;;;2.78;100.00;94221.03;20540497;28;20054;-73
2021/12/01 19:49:06;;;;;;;17.50;6.72;;;;;;;2.79;100.00;94230.44;20539340;28;20054;-73
2021/12/01 19:59:07;;;;;;;12.85;6.80;;;;;;;2.81;100.00;94228.31;20532092;28;20070;-73
2021/12/01 20:09:07;;;;;;;15.65;6.25;;;;;;;2.81;100.00;94234.31;20498765;28;20078;-73
2021/12/01 20:19:09;;;;;;;18.08;5.60;;;;;;;2.79;100.00;94243.50;20486746;28;20046;-75
2021/12/01 20:29:10;;;;;;;17.42;5.85;;;;;;;2.74;100.00;94246.97;20497622;28;20046;-73
2021/12/01 20:39:15;;;;;;;15.02;5.20;;;;;;;2.72;100.00;94249.09;20541658;28;20047;-73
2021/12/01 21:00:00;;;;;;;13.23;5.07;;;;;;;2.72;100.00;94279.69;20531244;28;20122;-73
2021/12/01 21:20:26;;;;;;;5.70;2.92;;;;;;;2.40;100.00;94313.31;20513251;28;20051;-73
2021/12/01 21:30:27;;;;;;;5.15;1.20;;;;;;;2.03;100.00;94319.28;20531381;28;20093;-73
2021/12/01 21:51:00;;;;;;;5.25;1.27;;;;;;;1.70;100.00;94332.19;20514827;28;20047;-73
2021/12/01 22:01:05;;;;;;;4.25;1.50;;;;;;;1.66;100.00;94346.84;20527744;28;20054;-73
2021/12/01 22:11:08;;;;;;;7.30;1.85;;;;;;;1.46;100.00;94345.22;20536531;28;20043;-72
2021/12/01 22:21:22;;;;;;;5.63;1.63;;;;;;;1.38;100.00;94348.41;20532797;28;20042;-73
2021/12/01 22:31:22;;;;;;;3.30;1.35;;;;;;;1.22;100.00;94349.59;20532433;28;20051;-72
2021/12/01 22:41:22;;;;;;;3.90;1.00;;;;;;;1.06;100.00;94338.50;20545918;28;20507;-73
2021/12/01 22:51:23;;;;;;;3.00;0.88;;;;;;;1.04;100.00;94349.22;20529534;28;20054;-72
2021/12/01 23:01:25;;;;;;;3.00;0.98;;;;;;;1.11;100.00;94354.13;20633591;22;20625;-73
2021/12/01 23:11:26;;;;;;;3.30;1.40;;;;;;;0.99;100.00;94350.03;20637649;28;20038;-73
2021/12/01 23:21:28;;;;;;;3.83;1.63;;;;;;;1.04;100.00;94359.63;20679185;28;20065;-73
2021/12/01 23:31:29;;;;;;;5.78;2.40;;;;;;;1.20;100.00;94360.31;20684357;28;20045;-73
2021/12/01 23:41:29;;;;;;;5.97;2.85;;;;;;;1.15;100.00;94361.13;20673806;28;20034;-73
2021/12/01 23:51:29;;;;;;;5.68;2.80;;;;;;;1.03;100.00;94352.88;20676801;28;20053;-73
